createdAt,value
2018-06-05T00:00:53.706Z,2.02
2018-06-05T00:03:21.942Z,2.12
2018-06-05T00:05:50.826Z,2.17
2018-06-05T00:08:19.058Z,2.00
2018-06-05T00:10:47.286Z,2.20
2018-06-05T00:13:15.761Z,1.77
2018-06-05T00:15:44.658Z,1.90
2018-06-05T00:18:12.924Z,2.10
2018-06-05T00:20:41.169Z,2.30
2018-06-05T00:23:09.387Z,2.10
2018-06-05T00:25:37.968Z,2.10
2018-06-05T00:28:06.194Z,2.00
2018-06-05T00:30:34.447Z,2.05
2018-06-05T00:33:02.842Z,2.25
2018-06-05T00:35:31.077Z,1.95
2018-06-05T00:37:59.382Z,1.90
2018-06-05T00:40:27.938Z,2.08
2018-06-05T00:42:56.239Z,1.90
2018-06-05T00:45:24.448Z,1.80
2018-06-05T00:47:53.687Z,2.30
2018-06-05T00:50:21.919Z,2.08
2018-06-05T00:52:50.139Z,2.00
2018-06-05T00:55:18.412Z,1.92
2018-06-05T00:57:46.630Z,1.80
2018-06-05T01:00:14.842Z,2.00
2018-06-05T01:02:43.197Z,1.80
2018-06-05T01:05:11.418Z,1.80
2018-06-05T01:07:41.337Z,2.00
2018-06-05T01:10:09.614Z,1.85
2018-06-05T01:12:37.918Z,1.92
2018-06-05T01:15:06.173Z,1.90
2018-06-05T01:17:35.024Z,1.85
2018-06-05T01:20:03.285Z,1.98
2018-06-05T01:22:31.499Z,2.10
2018-06-05T01:24:59.981Z,2.20
2018-06-05T01:27:28.210Z,2.20
2018-06-05T01:29:56.205Z,1.90
2018-06-05T01:32:24.490Z,1.90
2018-06-05T01:34:52.768Z,2.02
2018-06-05T01:37:21.070Z,1.98
2018-06-05T01:39:49.641Z,2.02
2018-06-05T01:42:17.858Z,1.95
2018-06-05T01:44:46.074Z,1.85
2018-06-05T01:47:14.994Z,2.00
2018-06-05T01:49:43.209Z,2.00
2018-06-05T01:52:11.437Z,1.92
2018-06-05T01:54:40.851Z,1.72
2018-06-05T01:57:09.066Z,2.12
2018-06-05T01:59:37.030Z,2.10
2018-06-05T02:02:05.370Z,2.10
2018-06-05T02:04:33.612Z,2.20
2018-06-05T02:07:02.002Z,2.00
2018-06-05T02:09:32.862Z,2.08
2018-06-05T02:12:01.234Z,2.08
2018-06-05T02:14:29.539Z,1.98
2018-06-05T02:16:58.002Z,1.92
2018-06-05T02:19:26.217Z,2.30
2018-06-05T02:21:54.443Z,1.85
2018-06-05T02:24:22.942Z,2.10
2018-06-05T02:26:51.178Z,2.10
2018-06-05T02:29:19.410Z,1.98
2018-06-05T02:31:48.283Z,1.82
2018-06-05T02:34:16.564Z,2.12
2018-06-05T02:36:44.739Z,1.90
2018-06-05T02:39:13.315Z,1.87
2018-06-05T02:41:41.626Z,1.95
2018-06-05T02:44:09.855Z,2.02
2018-06-05T02:46:38.197Z,1.82
2018-06-05T02:49:06.420Z,2.00
2018-06-05T02:51:34.706Z,1.62
2018-06-05T02:54:03.282Z,1.90
2018-06-05T02:56:31.546Z,2.10
2018-06-05T02:58:59.786Z,1.90
2018-06-05T03:01:28.327Z,2.30
2018-06-05T03:03:56.553Z,1.90
2018-06-05T03:06:24.882Z,1.92
2018-06-05T03:08:56.829Z,1.87
2018-06-05T03:11:25.214Z,1.90
2018-06-05T03:13:53.472Z,1.87
2018-06-05T03:16:22.178Z,1.85
2018-06-05T03:18:50.404Z,2.17
2018-06-05T03:21:18.626Z,1.80
2018-06-05T03:23:47.123Z,1.85
2018-06-05T03:26:15.477Z,1.98
2018-06-05T03:28:43.700Z,2.15
2018-06-05T03:31:12.651Z,1.85
2018-06-05T03:33:40.959Z,1.98
2018-06-05T03:36:09.175Z,1.70
2018-06-05T03:38:37.477Z,1.90
2018-06-05T03:41:05.763Z,1.98
2018-06-05T03:43:33.975Z,1.80
2018-06-05T03:46:02.836Z,1.90
2018-06-05T03:48:31.133Z,2.08
2018-06-05T03:50:59.437Z,2.12
2018-06-05T03:53:28.173Z,2.12
2018-06-05T03:55:56.399Z,2.10
2018-06-05T03:58:24.615Z,2.00
2018-06-05T04:00:53.505Z,1.80
2018-06-05T04:03:21.810Z,2.00
2018-06-05T04:05:50.102Z,1.90
2018-06-05T04:08:26.026Z,1.92
2018-06-05T04:10:54.525Z,2.00
2018-06-05T04:13:22.769Z,2.00
2018-06-05T04:15:51.025Z,2.02
2018-06-05T04:18:19.355Z,1.80
2018-06-05T04:20:47.549Z,2.00
2018-06-05T04:23:15.908Z,1.95
2018-06-05T04:25:44.122Z,1.80
2018-06-05T04:28:12.347Z,1.67
2018-06-05T04:30:41.643Z,2.00
2018-06-05T04:33:09.878Z,1.82
2018-06-05T04:35:38.187Z,1.85
2018-06-05T04:38:06.899Z,1.77
2018-06-05T04:40:35.119Z,2.00
2018-06-05T04:43:03.422Z,2.00
2018-06-05T04:45:31.809Z,2.00
2018-06-05T04:48:00.096Z,1.65
2018-06-05T04:50:28.713Z,1.90
2018-06-05T04:52:58.073Z,1.87
2018-06-05T04:55:26.290Z,1.87
2018-06-05T04:57:54.497Z,1.80
2018-06-05T05:00:23.112Z,1.50
2018-06-05T05:02:51.333Z,1.80
2018-06-05T05:05:19.574Z,1.87
2018-06-05T05:07:49.816Z,2.05
2018-06-05T05:10:18.181Z,1.85
2018-06-05T05:12:46.396Z,1.87
2018-06-05T05:15:15.034Z,1.90
2018-06-05T05:17:43.331Z,1.82
2018-06-05T05:20:11.551Z,1.87
2018-06-05T05:22:39.844Z,1.80
2018-06-05T05:25:08.154Z,1.77
2018-06-05T05:27:36.376Z,2.00
2018-06-05T05:30:05.097Z,1.82
2018-06-05T05:32:33.330Z,1.67
2018-06-05T05:35:01.558Z,2.25
2018-06-05T05:37:29.814Z,1.90
2018-06-05T05:39:58.037Z,2.08
2018-06-05T05:42:26.264Z,2.40
2018-06-05T05:44:54.554Z,2.17
2018-06-05T05:47:22.939Z,1.92
2018-06-05T05:49:51.178Z,2.05
2018-06-05T05:52:20.206Z,4.15
2018-06-05T05:54:48.490Z,3.65
2018-06-05T05:57:16.777Z,3.45
2018-06-05T05:59:45.541Z,3.02
2018-06-05T06:02:13.974Z,3.12
2018-06-05T06:04:42.197Z,2.90
2018-06-05T06:07:15.806Z,2.80
2018-06-05T06:09:46.135Z,2.60
2018-06-05T06:12:14.922Z,2.70
2018-06-05T06:14:43.178Z,2.58
2018-06-05T06:17:11.410Z,2.85
2018-06-05T06:19:40.086Z,2.42
2018-06-05T06:22:08.317Z,2.52
2018-06-05T06:24:36.623Z,2.77
2018-06-05T06:27:05.346Z,2.72
2018-06-05T06:29:33.522Z,2.70
2018-06-05T06:32:02.076Z,2.30
2018-06-05T06:34:30.333Z,2.50
2018-06-05T06:36:58.568Z,2.60
2018-06-05T06:39:26.878Z,2.42
2018-06-05T06:41:55.272Z,2.90
2018-06-05T06:44:23.494Z,2.45
2018-06-05T06:46:51.724Z,2.42
2018-06-05T06:49:21.531Z,2.52
2018-06-05T06:51:49.759Z,2.25
2018-06-05T06:54:17.981Z,2.60
2018-06-05T06:56:46.354Z,2.62
2018-06-05T06:59:14.594Z,2.50
2018-06-05T07:01:42.886Z,2.20
2018-06-05T07:04:11.302Z,2.20
2018-06-05T07:06:40.050Z,2.50
2018-06-05T07:09:10.873Z,2.50
2018-06-05T07:11:39.468Z,2.40
2018-06-05T07:14:07.694Z,2.37
2018-06-05T07:16:35.916Z,2.37
2018-06-05T07:19:04.438Z,2.50
2018-06-05T07:21:32.678Z,2.50
2018-06-05T07:24:00.915Z,2.27
2018-06-05T07:26:29.918Z,2.37
2018-06-05T07:28:58.213Z,2.25
2018-06-05T07:31:26.507Z,2.15
2018-06-05T07:33:55.225Z,2.27
2018-06-05T07:36:23.559Z,2.58
2018-06-05T07:38:51.794Z,2.40
2018-06-05T07:41:20.143Z,2.50
2018-06-05T07:43:48.356Z,2.60
2018-06-05T07:46:16.583Z,2.35
2018-06-05T07:48:45.606Z,2.50
2018-06-05T07:51:14.018Z,2.70
2018-06-05T07:53:42.246Z,2.35
2018-06-05T07:56:11.555Z,2.37
2018-06-05T07:58:39.800Z,2.42
2018-06-05T08:01:08.103Z,2.55
2018-06-05T08:03:36.756Z,2.30
2018-06-05T08:06:04.995Z,2.33
2018-06-05T08:08:39.287Z,2.08
2018-06-05T08:11:07.596Z,2.30
2018-06-05T08:13:35.850Z,2.33
2018-06-05T08:16:04.431Z,2.60
2018-06-05T08:18:32.671Z,2.35
2018-06-05T08:21:00.888Z,2.10
2018-06-05T08:23:29.155Z,2.50
2018-06-05T08:25:57.387Z,2.37
2018-06-05T08:28:25.614Z,2.10
2018-06-05T08:30:55.008Z,2.37
2018-06-05T08:33:23.402Z,2.40
2018-06-05T08:35:51.626Z,2.58
2018-06-05T08:38:20.355Z,2.50
2018-06-05T08:40:48.663Z,2.22
2018-06-05T08:43:16.890Z,2.80
2018-06-05T08:45:45.487Z,2.22
2018-06-05T08:48:13.722Z,2.20
2018-06-05T08:50:41.955Z,2.35
2018-06-05T08:53:10.622Z,2.33
2018-06-05T08:55:38.918Z,2.47
2018-06-05T08:58:07.339Z,2.30
2018-06-05T09:00:36.279Z,2.45
2018-06-05T09:03:04.509Z,2.52
2018-06-05T09:05:32.739Z,2.05
2018-06-05T09:08:03.157Z,2.45
2018-06-05T09:10:31.575Z,2.55
2018-06-05T09:12:59.804Z,2.40
2018-06-05T09:15:28.402Z,2.10
2018-06-05T09:17:56.765Z,2.40
2018-06-05T09:20:25.037Z,2.37
2018-06-05T09:22:53.431Z,2.50
2018-06-05T09:25:21.652Z,2.25
2018-06-05T09:27:49.866Z,2.10
2018-06-05T09:30:18.884Z,2.17
2018-06-05T09:32:47.110Z,2.40
2018-06-05T09:35:15.333Z,2.08
2018-06-05T09:37:44.148Z,2.20
2018-06-05T09:40:12.434Z,2.37
2018-06-05T09:42:40.753Z,2.17
2018-06-05T09:45:09.354Z,2.17
2018-06-05T09:47:37.805Z,2.30
2018-06-05T09:50:06.130Z,2.33
2018-06-05T09:52:34.702Z,2.67
2018-06-05T09:55:02.978Z,2.77
2018-06-05T09:57:31.294Z,3.00
2018-06-05T09:59:59.645Z,3.58
2018-06-05T10:02:28.006Z,3.95
2018-06-05T10:04:56.258Z,4.05
2018-06-05T10:07:24.707Z,3.98
2018-06-05T10:09:54.503Z,3.12
2018-06-05T10:12:22.740Z,3.60
2018-06-05T10:14:53.596Z,3.30
2018-06-05T10:17:21.926Z,3.40
2018-06-05T10:19:50.231Z,3.15
2018-06-05T10:22:18.835Z,3.10
2018-06-05T10:24:47.070Z,3.15
2018-06-05T10:27:15.372Z,2.92
2018-06-05T10:29:44.207Z,2.95
2018-06-05T10:32:12.447Z,3.52
2018-06-05T10:34:40.668Z,2.72
2018-06-05T10:37:09.213Z,2.85
2018-06-05T10:39:37.452Z,3.00
2018-06-05T10:42:05.721Z,3.10
2018-06-05T10:44:34.250Z,3.25
2018-06-05T10:47:02.496Z,3.40
2018-06-05T10:49:30.726Z,3.40
2018-06-05T10:52:00.209Z,3.10
2018-06-05T10:54:28.530Z,3.98
2018-06-05T10:56:56.750Z,4.22
2018-06-05T10:59:25.340Z,5.17
2018-06-05T11:01:53.523Z,5.30
2018-06-05T11:04:21.841Z,5.53
2018-06-05T11:06:50.614Z,5.75
2018-06-05T11:09:21.069Z,6.03
2018-06-05T11:11:49.378Z,7.00
2018-06-05T11:14:18.093Z,7.35
2018-06-05T11:16:46.394Z,7.28
2018-06-05T11:19:14.634Z,8.35
2018-06-05T11:21:43.330Z,8.20
2018-06-05T11:24:11.574Z,9.03
2018-06-05T11:26:39.790Z,9.68
2018-06-05T11:29:08.562Z,10.10
2018-06-05T11:31:36.798Z,11.33
2018-06-05T11:34:05.313Z,11.15
2018-06-05T11:36:33.930Z,10.75
2018-06-05T11:39:02.255Z,10.08
2018-06-05T11:41:30.512Z,9.65
2018-06-05T11:43:59.070Z,10.15
2018-06-05T11:46:27.317Z,9.20
2018-06-05T11:48:55.567Z,10.20
2018-06-05T11:51:24.799Z,10.30
2018-06-05T11:53:53.038Z,9.33
2018-06-05T11:56:21.262Z,10.08
2018-06-05T11:58:49.535Z,10.10
2018-06-05T12:01:17.756Z,9.83
2018-06-05T12:03:46.086Z,10.60
2018-06-05T12:06:14.766Z,9.70
2018-06-05T12:08:44.570Z,9.13
2018-06-05T12:11:12.829Z,10.15
2018-06-05T12:13:41.534Z,9.68
2018-06-05T12:16:09.787Z,9.48
2018-06-05T12:18:38.043Z,9.63
2018-06-05T12:21:06.534Z,9.48
2018-06-05T12:23:34.803Z,9.50
2018-06-05T12:26:03.042Z,9.48
2018-06-05T12:28:32.118Z,9.48
2018-06-05T12:31:00.373Z,10.25
2018-06-05T12:33:28.659Z,9.30
2018-06-05T12:35:56.970Z,9.13
2018-06-05T12:38:25.238Z,9.68
2018-06-05T12:40:53.627Z,9.30
2018-06-05T12:43:22.087Z,8.68
2018-06-05T12:45:50.318Z,9.00
2018-06-05T12:48:18.562Z,8.75
2018-06-05T12:50:47.873Z,9.15
2018-06-05T12:53:16.110Z,8.60
2018-06-05T12:55:44.358Z,8.68
2018-06-05T12:58:12.975Z,8.33
2018-06-05T13:00:41.206Z,8.55
2018-06-05T13:03:09.454Z,8.13
2018-06-05T13:05:37.811Z,8.20
2018-06-05T13:08:07.618Z,7.85
2018-06-05T13:10:35.866Z,7.83
2018-06-05T13:13:04.124Z,8.05
2018-06-05T13:15:32.581Z,8.30
2018-06-05T13:18:01.242Z,8.13
2018-06-05T13:20:29.453Z,7.50
2018-06-05T13:22:57.802Z,7.60
2018-06-05T13:25:26.589Z,8.08
2018-06-05T13:27:54.934Z,7.78
2018-06-05T13:30:23.174Z,8.63
2018-06-05T13:32:51.487Z,7.35
2018-06-05T13:35:19.798Z,7.75
2018-06-05T13:37:48.019Z,7.70
2018-06-05T13:40:16.382Z,8.00
2018-06-05T13:42:44.694Z,7.47
2018-06-05T13:45:12.909Z,7.60
2018-06-05T13:47:42.253Z,7.20
2018-06-05T13:50:10.511Z,7.70
2018-06-05T13:52:38.834Z,7.50
2018-06-05T13:55:07.340Z,7.08
2018-06-05T13:57:35.567Z,7.60
2018-06-05T14:00:03.866Z,7.50
2018-06-05T14:02:33.399Z,6.83
2018-06-05T14:05:01.711Z,7.10
2018-06-05T14:07:31.351Z,6.85
2018-06-05T14:10:03.396Z,7.05
2018-06-05T14:12:33.057Z,6.50
2018-06-05T14:15:02.663Z,6.92
2018-06-05T14:17:32.203Z,7.17
2018-06-05T14:20:01.801Z,7.45
2018-06-05T14:22:32.496Z,6.67
2018-06-05T14:25:00.778Z,7.47
2018-06-05T14:27:29.011Z,7.25
2018-06-05T14:29:57.373Z,6.97
2018-06-05T14:32:25.610Z,7.40
2018-06-05T14:34:53.848Z,7.87
2018-06-05T14:37:23.509Z,7.17
2018-06-05T14:39:51.813Z,7.15
2018-06-05T14:42:19.771Z,7.08
2018-06-05T14:44:48.613Z,7.42
2018-06-05T14:47:16.845Z,7.03
2018-06-05T14:49:45.090Z,7.05
2018-06-05T14:52:13.466Z,6.67
2018-06-05T14:54:41.689Z,7.10
2018-06-05T14:57:09.990Z,7.12
2018-06-05T14:59:39.330Z,6.35
2018-06-05T15:02:07.575Z,6.92
2018-06-05T15:04:35.816Z,6.83
2018-06-05T15:07:04.131Z,6.87
2018-06-05T15:09:34.283Z,6.60
2018-06-05T15:12:02.818Z,6.47
2018-06-05T15:14:31.558Z,6.40
2018-06-05T15:16:59.790Z,6.78
2018-06-05T15:19:28.085Z,6.60
2018-06-05T15:21:56.698Z,6.20
2018-06-05T15:24:25.022Z,6.83
2018-06-05T15:26:53.281Z,6.35
2018-06-05T15:29:22.759Z,5.95
2018-06-05T15:31:50.983Z,6.17
2018-06-05T15:34:19.298Z,6.53
2018-06-05T15:36:47.682Z,5.55
2018-06-05T15:39:15.998Z,6.78
2018-06-05T15:41:44.435Z,6.17
2018-06-05T15:44:13.239Z,6.20
2018-06-05T15:46:41.464Z,6.05
2018-06-05T15:49:09.802Z,6.30
2018-06-05T15:51:39.093Z,5.65
2018-06-05T15:54:07.359Z,6.87
2018-06-05T15:56:35.604Z,5.65
2018-06-05T15:59:03.882Z,6.12
2018-06-05T16:01:32.132Z,5.80
2018-06-05T16:04:00.199Z,5.83
2018-06-05T16:06:28.567Z,6.05
2018-06-05T16:08:59.386Z,5.90
2018-06-05T16:11:27.618Z,5.83
2018-06-05T16:13:57.474Z,6.35
2018-06-05T16:16:25.692Z,6.20
2018-06-05T16:18:53.975Z,5.92
2018-06-05T16:21:22.309Z,6.30
2018-06-05T16:23:50.545Z,5.97
2018-06-05T16:26:18.831Z,5.92
2018-06-05T16:28:47.326Z,6.33
2018-06-05T16:31:15.594Z,5.40
2018-06-05T16:33:43.820Z,5.58
2018-06-05T16:36:12.154Z,5.50
2018-06-05T16:38:40.415Z,5.97
2018-06-05T16:41:08.754Z,5.97
2018-06-05T16:43:36.958Z,5.65
2018-06-05T16:46:05.206Z,6.30
2018-06-05T16:48:33.462Z,5.37
2018-06-05T16:51:02.374Z,5.65
2018-06-05T16:53:30.681Z,5.92
2018-06-05T16:55:59.025Z,5.20
2018-06-05T16:58:27.297Z,5.60
2018-06-05T17:00:55.614Z,5.53
2018-06-05T17:03:23.853Z,5.65
2018-06-05T17:05:52.139Z,5.85
2018-06-05T17:08:21.757Z,5.30
2018-06-05T17:10:50.157Z,4.95
2018-06-05T17:13:18.503Z,5.67
2018-06-05T17:15:46.897Z,5.10
2018-06-05T17:18:14.870Z,5.05
2018-06-05T17:20:43.314Z,5.33
2018-06-05T17:23:11.628Z,5.22
2018-06-05T17:25:39.862Z,5.53
2018-06-05T17:28:08.851Z,4.95
2018-06-05T17:30:37.164Z,5.15
2018-06-05T17:33:05.516Z,5.28
2018-06-05T17:35:33.805Z,5.03
2018-06-05T17:38:02.048Z,4.85
2018-06-05T17:40:30.430Z,5.10
2018-06-05T17:42:59.050Z,4.83
2018-06-05T17:45:27.368Z,5.20
2018-06-05T17:47:55.586Z,4.80
2018-06-05T17:50:24.175Z,5.20
2018-06-05T17:52:52.460Z,4.78
2018-06-05T17:55:20.702Z,5.20
2018-06-05T17:57:49.199Z,5.00
2018-06-05T18:00:17.543Z,5.10
2018-06-05T18:02:45.753Z,5.03
2018-06-05T18:05:14.206Z,4.95
2018-06-05T18:07:47.020Z,5.55
2018-06-05T18:10:15.302Z,5.12
2018-06-05T18:12:43.558Z,4.92
2018-06-05T18:15:11.917Z,4.80
2018-06-05T18:17:40.540Z,4.97
2018-06-05T18:20:08.862Z,5.40
2018-06-05T18:22:37.140Z,5.47
2018-06-05T18:25:06.378Z,5.00
2018-06-05T18:27:34.671Z,5.25
2018-06-05T18:30:02.911Z,5.47
2018-06-05T18:32:31.302Z,5.10
2018-06-05T18:34:59.647Z,4.95
2018-06-05T18:37:27.884Z,4.85
2018-06-05T18:39:56.232Z,5.40
2018-06-05T18:42:24.487Z,5.10
2018-06-05T18:44:52.778Z,4.95
2018-06-05T18:47:21.808Z,5.08
2018-06-05T18:49:50.093Z,5.28
2018-06-05T18:52:18.349Z,5.28
2018-06-05T18:54:46.935Z,4.95
2018-06-05T18:57:15.192Z,4.95
2018-06-05T18:59:43.510Z,5.45
2018-06-05T19:02:13.980Z,5.45
2018-06-05T19:04:42.244Z,5.85
2018-06-05T19:07:10.489Z,5.12
2018-06-05T19:09:41.266Z,5.00
2018-06-05T19:12:09.592Z,5.12
2018-06-05T19:14:37.836Z,5.03
2018-06-05T19:17:06.351Z,4.95
2018-06-05T19:19:34.606Z,5.50
2018-06-05T19:22:02.918Z,5.10
2018-06-05T19:24:31.252Z,5.42
2018-06-05T19:26:59.518Z,5.58
2018-06-05T19:29:27.883Z,4.67
2018-06-05T19:31:56.992Z,5.10
2018-06-05T19:34:25.269Z,4.45
2018-06-05T19:36:53.509Z,5.35
2018-06-05T19:39:21.984Z,5.15
2018-06-05T19:41:50.261Z,5.05
2018-06-05T19:44:18.495Z,4.90
2018-06-05T19:46:46.808Z,4.83
2018-06-05T19:49:15.087Z,4.83
2018-06-05T19:51:43.342Z,4.75
2018-06-05T19:54:12.543Z,5.12
2018-06-05T19:56:40.822Z,5.22
2018-06-05T19:59:09.071Z,4.60
2018-06-05T20:01:37.785Z,4.58
2018-06-05T20:04:06.129Z,4.72
2018-06-05T20:06:34.351Z,4.70
2018-06-05T20:09:04.770Z,4.58
2018-06-05T20:11:33.022Z,4.85
2018-06-05T20:14:01.363Z,4.50
2018-06-05T20:16:29.644Z,4.60
2018-06-05T20:18:57.943Z,4.70
2018-06-05T20:21:26.207Z,4.10
2018-06-05T20:23:54.543Z,4.55
2018-06-05T20:26:22.794Z,4.42
2018-06-05T20:28:51.076Z,3.87
2018-06-05T20:31:20.855Z,4.25
2018-06-05T20:33:49.122Z,4.03
2018-06-05T20:36:17.359Z,4.65
2018-06-05T20:38:46.093Z,4.55
2018-06-05T20:41:14.360Z,4.00
2018-06-05T20:43:42.647Z,4.20
2018-06-05T20:46:11.275Z,4.22
2018-06-05T20:48:39.547Z,3.98
2018-06-05T20:51:07.550Z,4.53
2018-06-05T20:53:36.360Z,4.15
2018-06-05T20:56:04.675Z,3.83
2018-06-05T20:58:32.926Z,4.15
2018-06-05T21:01:01.213Z,4.08
2018-06-05T21:03:29.468Z,4.03
2018-06-05T21:05:57.743Z,4.40
2018-06-05T21:08:27.308Z,3.67
2018-06-05T21:10:55.749Z,3.75
2018-06-05T21:13:24.075Z,4.17
2018-06-05T21:15:52.538Z,3.72
2018-06-05T21:18:20.798Z,3.85
2018-06-05T21:20:49.252Z,3.60
2018-06-05T21:23:18.802Z,3.58
2018-06-05T21:25:47.197Z,3.67
2018-06-05T21:28:15.443Z,4.10
2018-06-05T21:30:44.043Z,3.83
2018-06-05T21:33:12.451Z,3.55
2018-06-05T21:35:40.770Z,4.12
2018-06-05T21:38:09.494Z,3.55
2018-06-05T21:40:37.716Z,3.45
2018-06-05T21:43:06.098Z,3.58
2018-06-05T21:45:36.343Z,3.55
2018-06-05T21:48:04.782Z,3.50
2018-06-05T21:50:32.789Z,3.72
2018-06-05T21:53:01.082Z,3.20
2018-06-05T21:55:29.326Z,3.60
2018-06-05T21:57:57.551Z,3.58
2018-06-05T22:00:26.044Z,3.00
2018-06-05T22:02:54.477Z,3.52
2018-06-05T22:05:22.715Z,3.27
2018-06-05T22:07:51.894Z,3.70
2018-06-05T22:10:22.239Z,3.60
2018-06-05T22:12:50.681Z,3.42
2018-06-05T22:15:18.973Z,3.50
2018-06-05T22:17:47.206Z,3.75
2018-06-05T22:20:15.466Z,3.37
2018-06-05T22:22:43.760Z,3.40
2018-06-05T22:25:11.986Z,3.70
2018-06-05T22:27:40.214Z,3.40
2018-06-05T22:30:09.368Z,3.08
2018-06-05T22:32:37.658Z,3.47
2018-06-05T22:35:05.898Z,3.30
2018-06-05T22:37:34.790Z,3.40
2018-06-05T22:40:03.186Z,2.80
2018-06-05T22:42:31.417Z,3.52
2018-06-05T22:44:59.927Z,3.40
2018-06-05T22:47:28.178Z,2.92
2018-06-05T22:49:56.402Z,2.85
2018-06-05T22:52:25.326Z,3.20
2018-06-05T22:54:53.567Z,3.00
2018-06-05T22:57:21.788Z,3.70
2018-06-05T22:59:50.406Z,3.20
2018-06-05T23:02:18.635Z,3.05
2018-06-05T23:04:46.956Z,2.90
2018-06-05T23:07:15.244Z,2.90
2018-06-05T23:09:44.846Z,3.20
2018-06-05T23:12:13.146Z,2.90
2018-06-05T23:14:41.571Z,3.12
2018-06-05T23:17:09.848Z,2.92
2018-06-05T23:19:38.148Z,3.20
2018-06-05T23:22:06.430Z,2.80
2018-06-05T23:24:34.672Z,3.00
2018-06-05T23:27:02.909Z,3.00
2018-06-05T23:29:35.774Z,2.90
2018-06-05T23:32:04.019Z,3.00
2018-06-05T23:34:33.025Z,2.77
2018-06-05T23:37:01.292Z,3.05
2018-06-05T23:39:29.529Z,2.95
2018-06-05T23:41:58.632Z,2.83
2018-06-05T23:44:26.973Z,3.00
2018-06-05T23:46:55.196Z,2.90
2018-06-05T23:49:23.929Z,2.77
2018-06-05T23:51:56.555Z,2.62
2018-06-05T23:54:25.048Z,2.85
2018-06-05T23:56:53.358Z,2.98
2018-06-05T23:59:21.669Z,2.70
